Time;durP1;ratioP1;P1;durP2;ratioP2;P2;SDS_P1;SDS_P2;PMS_P1;PMS_P2;Temp;Humidity;BMP_temperature;BMP_pressure;BME280_temperature;BME280_humidity;BME280_pressure;Samples;Min_cycle;Max_cycle;Signal;HPM_P1;HPM_P2
2023/12/12 00:02:21;;;;;;;10.03;4.43;;;4.60;99.90;;;;;;4922663;29;20063;-89
2023/12/12 00:04:49;;;;;;;7.82;3.92;;;3.40;99.90;;;;;;4905927;28;20413;-93
2023/12/12 00:07:21;;;;;;;8.43;4.13;;;4.50;99.90;;;;;;4922455;29;20055;-90
2023/12/12 00:09:58;;;;;;;9.02;4.43;;;4.50;99.90;;;;;;4922402;29;20198;-89
2023/12/12 00:12:24;;;;;;;7.72;3.28;;;4.60;99.90;;;;;;4908030;29;20090;-89
2023/12/12 00:14:57;;;;;;;5.83;4.07;;;4.40;99.90;;;;;;4922176;29;20161;-92
2023/12/12 00:17:27;;;;;;;8.07;5.00;;;3.30;99.90;;;;;;4921692;29;20486;-89
2023/12/12 00:19:53;;;;;;;8.73;5.05;;;4.30;99.90;;;;;;4922129;29;20050;-90
2023/12/12 00:22:24;;;;;;;10.37;4.33;;;5.60;99.90;;;;;;4937924;29;20051;-89
2023/12/12 00:24:50;;;;;;;5.70;3.60;;;4.10;99.90;;;;;;4922514;29;20055;-91
2023/12/12 00:27:18;;;;;;;10.93;4.30;;;4.10;99.90;;;;;;4937723;29;20043;-90
2023/12/12 00:29:46;;;;;;;10.20;3.42;;;4.10;99.90;;;;;;4937641;29;20054;-89
2023/12/12 00:32:20;;;;;;;8.07;4.05;;;4.30;99.90;;;;;;4937537;29;20053;-89
2023/12/12 00:34:51;;;;;;;10.07;3.90;;;4.00;99.90;;;;;;4937720;29;20082;-90
2023/12/12 00:37:22;;;;;;;10.20;4.15;;;4.80;99.90;;;;;;4921481;29;20493;-90
2023/12/12 00:39:48;;;;;;;9.57;4.25;;;5.10;99.90;;;;;;4937742;29;20051;-89
2023/12/12 00:42:13;;;;;;;10.53;3.73;;;4.00;99.90;;;;;;4936492;29;20130;-89
2023/12/12 00:44:42;;;;;;;9.27;3.80;;;3.20;99.90;;;;;;4937262;29;20047;-89
2023/12/12 00:47:09;;;;;;;10.57;4.68;;;4.00;99.90;;;;;;4908428;29;20077;-90
2023/12/12 00:49:37;;;;;;;13.70;3.72;;;3.90;99.90;;;;;;4925173;29;20040;-89
2023/12/12 00:52:04;;;;;;;9.40;4.30;;;4.00;99.90;;;;;;4909113;29;20049;-90
2023/12/12 00:54:32;;;;;;;6.78;4.75;;;3.80;99.90;;;;;;4925224;29;20051;-89
2023/12/12 00:57:08;;;;;;;6.75;3.60;;;3.30;99.90;;;;;;4940607;29;20072;-89
2023/12/12 00:59:34;;;;;;;9.73;4.63;;;3.80;99.90;;;;;;4909251;29;20078;-90
2023/12/12 01:01:59;;;;;;;6.40;4.33;;;3.70;99.90;;;;;;4939933;29;20055;-90
2023/12/12 01:04:36;;;;;;;8.83;4.37;;;4.90;99.90;;;;;;4925168;29;20058;-89
2023/12/12 01:07:14;;;;;;;8.27;3.70;;;3.70;99.90;;;;;;4924047;29;20055;-89
2023/12/12 01:09:44;;;;;;;;;;;4.30;99.90;;;;;;4941341;29;20477;-89
2023/12/12 01:12:15;;;;;;;7.47;4.10;;;3.60;99.90;;;;;;4913338;29;19930;-92
2023/12/12 01:14:43;;;;;;;10.43;4.07;;;3.60;99.90;;;;;;4940394;29;20055;-89
2023/12/12 01:17:09;;;;;;;6.47;3.80;;;4.60;99.90;;;;;;4921666;29;20108;-89
2023/12/12 01:19:37;;;;;;;9.57;3.90;;;2.70;99.90;;;;;;4921993;29;20441;-89
2023/12/12 01:22:07;;;;;;;8.05;3.55;;;4.60;99.90;;;;;;4937673;29;20084;-89
2023/12/12 01:24:34;;;;;;;8.40;3.47;;;3.50;99.90;;;;;;4922010;29;20054;-89
2023/12/12 01:27:03;;;;;;;10.57;4.00;;;3.20;99.90;;;;;;4921655;29;20055;-90
2023/12/12 01:29:31;;;;;;;13.90;4.35;;;3.50;99.90;;;;;;4921445;29;20048;-90
2023/12/12 01:31:56;;;;;;;12.68;4.32;;;3.40;99.90;;;;;;4921439;29;20514;-90
2023/12/12 01:34:32;;;;;;;;;;;;;;;;;;;;;
2023/12/12 01:37:01;;;;;;;8.55;3.38;;;3.50;99.90;;;;;;4921324;29;20048;-90
2023/12/12 01:39:33;;;;;;;7.32;3.75;;;3.40;99.90;;;;;;4905855;29;20039;-90
2023/12/12 01:42:02;;;;;;;13.25;4.47;;;4.60;99.90;;;;;;4921646;29;20039;-89
2023/12/12 01:44:30;;;;;;;11.85;3.97;;;3.30;99.90;;;;;;4921026;29;20102;-89
2023/12/12 01:46:58;;;;;;;8.75;3.85;;;3.50;99.90;;;;;;4921329;29;20047;-89
2023/12/12 01:49:36;;;;;;;8.40;3.83;;;3.40;99.90;;;;;;4905249;29;20131;-89
2023/12/12 01:52:07;;;;;;;8.32;3.50;;;3.30;99.90;;;;;;4906706;29;20055;-92
2023/12/12 01:54:45;;;;;;;10.18;3.75;;;2.60;99.90;;;;;;4905708;29;20052;-90
2023/12/12 01:57:14;;;;;;;6.07;3.72;;;3.30;99.90;;;;;;4936169;29;20051;-89
2023/12/12 01:59:40;;;;;;;6.28;2.95;;;2.40;99.90;;;;;;4905597;29;20047;-89
2023/12/12 02:02:14;;;;;;;6.03;4.13;;;3.20;99.90;;;;;;4921126;29;20043;-90
2023/12/12 02:04:47;;;;;;;9.43;3.50;;;3.90;99.90;;;;;;4905537;29;20375;-89
2023/12/12 02:07:13;;;;;;;9.27;3.92;;;3.10;99.90;;;;;;4923092;29;20063;-90
2023/12/12 02:09:42;;;;;;;6.67;3.30;;;3.20;99.90;;;;;;4924096;29;20133;-89
2023/12/12 02:12:11;;;;;;;8.38;3.45;;;3.10;99.90;;;;;;4923222;29;20536;-89
2023/12/12 02:14:39;;;;;;;5.97;3.47;;;3.10;99.90;;;;;;4908479;29;20058;-89
2023/12/12 02:17:08;;;;;;;6.07;2.75;;;3.00;99.90;;;;;;4923729;29;20138;-94
2023/12/12 02:19:47;;;;;;;7.65;3.40;;;3.10;99.90;;;;;;4939444;29;20509;-89
2023/12/12 02:22:32;;;;;;;3.72;2.45;;;3.20;99.90;;;;;;4925313;29;20134;-89
2023/12/12 02:25:26;;;;;;;7.55;3.25;;;3.10;99.90;;;;;;4940442;29;20047;-90
2023/12/12 02:27:55;;;;;;;7.43;3.20;;;3.00;99.90;;;;;;4924218;29;20471;-89
2023/12/12 02:30:21;;;;;;;7.75;3.88;;;4.40;99.90;;;;;;4922906;29;20458;-89
2023/12/12 02:32:53;;;;;;;7.60;2.90;;;3.00;99.90;;;;;;4923796;29;20142;-89
2023/12/12 02:35:21;;;;;;;11.55;3.63;;;3.00;99.90;;;;;;4923816;29;20508;-89
2023/12/12 02:37:50;;;;;;;11.82;3.63;;;2.90;99.90;;;;;;4923936;29;20089;-89
2023/12/12 02:40:15;;;;;;;5.53;3.33;;;3.10;99.90;;;;;;4938909;29;20485;-89
2023/12/12 02:42:54;;;;;;;;;;;;;;;;;;;;;
2023/12/12 02:45:26;;;;;;;6.50;3.30;;;3.00;99.90;;;;;;4939200;29;20397;-90
2023/12/12 02:47:52;;;;;;;5.57;2.60;;;2.90;99.90;;;;;;4939637;29;20047;-89
2023/12/12 02:50:19;;;;;;;5.80;4.07;;;2.90;99.90;;;;;;4923266;29;20047;-90
2023/12/12 02:52:47;;;;;;;10.50;4.22;;;1.90;99.90;;;;;;4923763;29;20083;-89
2023/12/12 02:55:21;;;;;;;6.80;3.20;;;3.10;99.90;;;;;;4923236;29;20039;-90
2023/12/12 02:57:56;;;;;;;9.50;2.90;;;4.10;99.90;;;;;;4929311;29;20114;-90
2023/12/12 03:00:22;;;;;;;9.45;3.50;;;3.00;99.90;;;;;;4905561;29;20043;-89
2023/12/12 03:02:48;;;;;;;7.50;3.33;;;4.60;99.90;;;;;;4919954;29;20387;-90
2023/12/12 03:05:19;;;;;;;6.57;3.50;;;3.80;99.90;;;;;;4919470;29;20200;-89
2023/12/12 03:07:52;;;;;;;10.63;3.50;;;2.90;99.90;;;;;;4947371;28;20039;-89
2023/12/12 03:10:18;;;;;;;7.93;3.20;;;3.10;99.90;;;;;;4941348;28;20493;-89
2023/12/12 03:12:44;;;;;;;6.40;3.17;;;3.10;99.90;;;;;;4942421;28;20097;-89
2023/12/12 03:15:12;;;;;;;7.60;3.85;;;3.40;99.90;;;;;;4957886;28;20049;-91
2023/12/12 03:17:41;;;;;;;9.07;2.92;;;3.50;99.90;;;;;;4930985;29;20489;-89
2023/12/12 03:20:10;;;;;;;5.67;3.73;;;3.00;99.90;;;;;;4922728;29;20078;-89
2023/12/12 03:22:36;;;;;;;9.15;3.28;;;2.90;99.90;;;;;;4906952;29;20068;-90
2023/12/12 03:25:10;;;;;;;7.07;3.67;;;2.90;99.90;;;;;;4938932;29;20601;-90
2023/12/12 03:27:38;;;;;;;13.63;3.63;;;3.60;99.90;;;;;;4922911;29;20568;-89
2023/12/12 03:30:07;;;;;;;11.70;4.50;;;2.80;99.90;;;;;;4922561;29;20051;-89
2023/12/12 03:32:32;;;;;;;9.88;3.10;;;2.70;99.90;;;;;;4937435;29;20524;-89
2023/12/12 03:35:16;;;;;;;9.87;3.27;;;2.60;99.90;;;;;;4923106;29;20051;-89
2023/12/12 03:37:43;;;;;;;8.70;4.13;;;3.00;99.90;;;;;;4941670;28;20055;-89
2023/12/12 03:40:19;;;;;;;6.43;3.40;;;2.60;99.90;;;;;;4941538;28;20042;-89
2023/12/12 03:42:45;;;;;;;7.47;3.35;;;1.70;99.90;;;;;;4942199;28;20138;-89
2023/12/12 03:45:13;;;;;;;8.17;3.83;;;1.60;99.90;;;;;;4936526;29;20047;-90
2023/12/12 03:47:42;;;;;;;6.78;3.67;;;2.40;99.90;;;;;;4938234;29;20047;-89
2023/12/12 03:50:15;;;;;;;9.20;3.35;;;2.40;99.90;;;;;;4918457;29;20122;-89
2023/12/12 03:52:43;;;;;;;8.57;3.75;;;2.20;99.90;;;;;;4933560;29;20047;-89
2023/12/12 03:55:15;;;;;;;7.00;3.58;;;3.70;99.90;;;;;;4922590;29;20155;-89
2023/12/12 03:57:45;;;;;;;8.90;3.97;;;2.20;99.90;;;;;;4922358;29;20138;-89
2023/12/12 04:00:19;;;;;;;5.28;3.78;;;2.30;99.90;;;;;;4922470;29;20493;-89
2023/12/12 04:02:45;;;;;;;12.07;5.03;;;3.10;99.90;;;;;;4922490;29;20043;-89
2023/12/12 04:05:17;;;;;;;6.47;3.78;;;2.10;99.90;;;;;;4922499;28;20059;-89
2023/12/12 04:07:45;;;;;;;6.88;3.13;;;2.10;99.90;;;;;;4938258;29;20055;-89
2023/12/12 04:10:13;;;;;;;8.02;4.32;;;2.70;99.90;;;;;;4902832;29;20102;-90
2023/12/12 04:12:39;;;;;;;7.43;3.72;;;2.00;99.90;;;;;;4922034;29;20043;-89
2023/12/12 04:15:08;;;;;;;9.60;3.73;;;3.30;99.90;;;;;;4938214;29;20394;-89
2023/12/12 04:17:34;;;;;;;9.52;3.90;;;2.00;99.90;;;;;;4938192;29;20047;-90
2023/12/12 04:19:59;;;;;;;8.33;4.73;;;3.00;99.90;;;;;;4938070;29;20102;-89
2023/12/12 04:22:25;;;;;;;10.00;4.80;;;1.10;99.90;;;;;;4941435;29;20050;-90
2023/12/12 04:24:51;;;;;;;9.23;4.53;;;2.70;99.90;;;;;;4942237;29;20043;-90
2023/12/12 04:27:17;;;;;;;9.17;6.10;;;3.30;99.90;;;;;;4926327;29;20051;-89
2023/12/12 04:29:45;;;;;;;9.73;5.83;;;3.30;99.90;;;;;;4941725;29;20150;-89
2023/12/12 04:32:11;;;;;;;11.07;6.32;;;3.40;99.90;;;;;;4938729;29;20135;-89
2023/12/12 04:34:39;;;;;;;11.17;6.87;;;1.90;99.90;;;;;;4941182;29;20135;-89
2023/12/12 04:37:05;;;;;;;12.07;6.78;;;3.50;99.90;;;;;;4941572;29;20401;-89
2023/12/12 04:39:30;;;;;;;11.97;5.73;;;2.00;99.90;;;;;;4941753;29;20090;-89
2023/12/12 04:41:56;;;;;;;11.40;5.77;;;2.00;99.90;;;;;;4941850;29;20102;-89
2023/12/12 04:44:23;;;;;;;10.20;5.80;;;3.30;99.90;;;;;;4941854;29;20051;-90
2023/12/12 04:46:51;;;;;;;10.50;6.90;;;2.00;99.90;;;;;;4925710;29;20039;-89
2023/12/12 04:49:19;;;;;;;10.95;6.57;;;1.90;99.90;;;;;;4910181;29;20078;-89
2023/12/12 04:51:47;;;;;;;13.10;7.32;;;2.10;99.90;;;;;;4941408;29;20047;-90
2023/12/12 04:54:13;;;;;;;13.27;6.93;;;2.40;99.90;;;;;;4925720;29;20180;-89
2023/12/12 04:56:41;;;;;;;15.30;7.97;;;2.20;99.90;;;;;;4940919;29;20129;-89
2023/12/12 04:59:06;;;;;;;15.02;7.00;;;1.20;99.90;;;;;;4941749;29;20051;-89
2023/12/12 05:01:35;;;;;;;12.73;7.73;;;1.90;99.90;;;;;;4925068;29;20060;-90
2023/12/12 05:04:01;;;;;;;15.35;8.57;;;1.80;99.90;;;;;;4941428;29;20054;-89
2023/12/12 05:06:26;;;;;;;14.93;9.27;;;1.90;99.90;;;;;;4940382;29;20059;-94
2023/12/12 05:08:55;;;;;;;23.83;8.97;;;1.70;99.90;;;;;;4941023;29;20134;-89
2023/12/12 05:11:20;;;;;;;18.85;9.70;;;2.50;99.90;;;;;;4925115;29;20070;-89
2023/12/12 05:13:46;;;;;;;18.23;9.63;;;3.20;99.90;;;;;;4933933;29;20051;-89
2023/12/12 05:16:13;;;;;;;12.83;7.23;;;2.60;99.90;;;;;;4940916;29;20051;-89
2023/12/12 05:18:38;;;;;;;16.55;7.72;;;1.70;99.90;;;;;;4924461;29;20054;-89
2023/12/12 05:21:07;;;;;;;18.40;7.63;;;3.20;99.90;;;;;;4924998;29;20044;-89
2023/12/12 05:23:32;;;;;;;16.73;7.55;;;0.80;99.90;;;;;;4922905;29;20047;-90
2023/12/12 05:25:58;;;;;;;25.50;11.07;;;1.90;99.90;;;;;;4940842;29;20047;-89
2023/12/12 05:28:24;;;;;;;19.03;9.63;;;1.60;99.90;;;;;;4940733;29;20057;-89
2023/12/12 05:30:50;;;;;;;21.37;10.37;;;3.00;99.90;;;;;;4917845;29;20090;-89
2023/12/12 05:33:18;;;;;;;15.33;8.03;;;1.70;99.90;;;;;;4924397;29;20185;-89
2023/12/12 05:35:44;;;;;;;25.00;9.57;;;3.10;99.90;;;;;;4935916;28;20489;-90
2023/12/12 05:38:10;;;;;;;18.97;9.80;;;3.20;99.90;;;;;;4960157;28;20047;-89
2023/12/12 05:40:36;;;;;;;26.50;12.60;;;3.10;99.90;;;;;;4959850;28;20054;-89
2023/12/12 05:43:01;;;;;;;88.03;17.17;;;2.30;99.90;;;;;;4928997;29;20052;-89
2023/12/12 05:45:30;;;;;;;138.50;21.87;;;1.90;99.90;;;;;;4922278;29;20099;-90
2023/12/12 05:48:03;;;;;;;164.57;24.15;;;1.90;99.90;;;;;;4924589;29;20055;-90
2023/12/12 05:50:29;;;;;;;127.55;15.73;;;3.20;99.90;;;;;;4924395;29;20114;-89
2023/12/12 05:53:05;;;;;;;;;;;;;;;;;;;;;
2023/12/12 05:55:31;;;;;;;167.63;24.08;;;3.20;99.90;;;;;;4952265;28;20047;-90
2023/12/12 05:57:57;;;;;;;150.73;19.17;;;2.00;99.90;;;;;;4975076;28;20050;-89
2023/12/12 06:00:33;;;;;;;202.32;25.60;;;2.10;99.90;;;;;;4943246;28;20452;-89
2023/12/12 06:03:10;;;;;;;180.20;26.27;;;2.10;99.90;;;;;;4943589;28;20047;-90
2023/12/12 06:05:38;;;;;;;;;;;2.20;99.90;;;;;;4940024;29;20066;-90
2023/12/12 06:08:06;;;;;;;185.30;24.92;;;2.10;99.90;;;;;;4955701;29;20369;-90
2023/12/12 06:10:32;;;;;;;219.32;26.05;;;2.20;99.90;;;;;;4923860;29;20044;-93
2023/12/12 06:13:00;;;;;;;206.97;26.60;;;2.10;99.90;;;;;;4939748;29;20047;-89
2023/12/12 06:15:29;;;;;;;199.27;26.42;;;1.90;99.90;;;;;;4923885;29;20047;-89
2023/12/12 06:17:57;;;;;;;187.75;31.88;;;1.90;99.90;;;;;;4906817;29;20047;-89
2023/12/12 06:20:25;;;;;;;218.02;42.97;;;2.80;99.90;;;;;;4905270;29;20056;-89
2023/12/12 06:22:52;;;;;;;223.23;37.22;;;3.30;99.90;;;;;;4920731;29;20051;-89
2023/12/12 06:25:22;;;;;;;75.00;18.88;;;2.30;99.90;;;;;;4905116;29;20078;-89
2023/12/12 06:27:49;;;;;;;90.55;17.13;;;3.00;99.90;;;;;;4923720;29;20058;-90
2023/12/12 06:30:15;;;;;;;142.80;23.23;;;2.30;99.90;;;;;;4908308;29;20098;-89
2023/12/12 06:32:42;;;;;;;95.47;19.20;;;1.50;99.90;;;;;;4920275;29;20043;-89
2023/12/12 06:35:15;;;;;;;96.93;20.50;;;2.60;99.90;;;;;;4904594;29;20485;-89
2023/12/12 06:37:44;;;;;;;140.82;24.80;;;2.40;99.90;;;;;;4931168;29;20130;-89
2023/12/12 06:40:12;;;;;;;111.85;24.50;;;2.40;99.90;;;;;;4939735;29;20401;-89
2023/12/12 06:42:38;;;;;;;169.50;30.50;;;2.30;99.90;;;;;;4923445;29;20051;-92
2023/12/12 06:45:05;;;;;;;140.43;25.60;;;3.90;99.90;;;;;;4907370;29;20213;-89
2023/12/12 06:47:34;;;;;;;;;;;2.50;99.90;;;;;;4938295;29;20043;-89
2023/12/12 06:50:09;;;;;;;170.95;31.88;;;2.00;99.90;;;;;;4920814;29;20398;-89
2023/12/12 06:52:35;;;;;;;124.63;23.50;;;2.50;99.90;;;;;;4923489;29;20481;-89
2023/12/12 06:55:00;;;;;;;150.73;28.10;;;2.60;99.90;;;;;;4922930;29;20061;-88
2023/12/12 06:57:29;;;;;;;203.37;38.40;;;2.60;99.90;;;;;;4939197;29;20157;-89
2023/12/12 06:59:56;;;;;;;163.45;36.67;;;2.70;99.90;;;;;;4906506;29;20047;-89
2023/12/12 07:02:30;;;;;;;111.18;28.23;;;2.60;99.90;;;;;;4903757;29;20055;-89
2023/12/12 07:04:56;;;;;;;98.53;37.30;;;2.70;99.90;;;;;;4903688;28;20138;-89
2023/12/12 07:07:22;;;;;;;305.42;58.22;;;2.60;99.90;;;;;;4919157;29;20067;-89
2023/12/12 07:09:52;;;;;;;194.03;47.03;;;2.70;99.90;;;;;;4918685;29;20040;-89
2023/12/12 07:12:18;;;;;;;121.97;34.70;;;2.30;99.90;;;;;;4888552;29;20047;-89
2023/12/12 07:14:46;;;;;;;160.77;45.57;;;2.80;99.90;;;;;;4920087;29;20047;-90
2023/12/12 07:17:12;;;;;;;265.90;57.03;;;2.90;99.90;;;;;;4904271;29;20051;-88
2023/12/12 07:19:37;;;;;;;158.97;42.20;;;2.90;99.90;;;;;;4903051;29;20131;-88
2023/12/12 07:22:03;;;;;;;208.63;47.27;;;3.00;99.90;;;;;;4906669;29;20134;-88
2023/12/12 07:24:29;;;;;;;215.67;43.27;;;3.60;99.90;;;;;;4903623;29;20043;-88
2023/12/12 07:26:55;;;;;;;153.53;45.60;;;4.10;99.90;;;;;;4919056;29;20085;-88
2023/12/12 07:29:29;;;;;;;199.60;45.10;;;4.20;99.90;;;;;;4919217;29;20052;-88
2023/12/12 07:31:55;;;;;;;262.65;61.33;;;1.90;99.90;;;;;;4918980;29;20134;-88
2023/12/12 07:34:21;;;;;;;359.30;73.33;;;4.10;99.90;;;;;;4903514;29;20135;-88
2023/12/12 07:36:51;;;;;;;286.77;65.97;;;4.60;99.90;;;;;;4903024;29;20405;-88
2023/12/12 07:39:20;;;;;;;247.73;59.63;;;3.40;99.90;;;;;;4918908;29;20082;-88
2023/12/12 07:41:47;;;;;;;257.48;60.80;;;3.40;99.90;;;;;;4903201;29;20103;-91
2023/12/12 07:44:14;;;;;;;287.83;72.53;;;3.80;99.90;;;;;;4903476;29;20055;-89
2023/12/12 07:46:41;;;;;;;219.68;67.78;;;3.50;99.90;;;;;;4901353;29;20494;-89
2023/12/12 07:49:07;;;;;;;221.68;63.38;;;3.60;99.90;;;;;;4910299;29;20050;-88
2023/12/12 07:51:37;;;;;;;278.65;68.28;;;5.00;99.90;;;;;;4919871;29;20397;-91
2023/12/12 07:54:06;;;;;;;197.38;54.28;;;3.60;99.90;;;;;;4920579;29;20047;-91
2023/12/12 07:56:37;;;;;;;334.48;80.25;;;3.70;99.90;;;;;;4918910;29;20042;-90
2023/12/12 07:59:06;;;;;;;224.30;66.78;;;5.30;99.90;;;;;;4904146;29;20054;-92
2023/12/12 08:01:32;;;;;;;235.20;70.78;;;3.90;99.90;;;;;;4889775;29;20083;-90
2023/12/12 08:04:10;;;;;;;195.43;61.63;;;3.90;99.90;;;;;;4903494;29;20052;-91
2023/12/12 08:07:21;;;;;;;203.90;67.03;;;3.90;99.90;;;;;;4905208;29;20060;-92
2023/12/12 08:09:50;;;;;;;249.43;68.38;;;4.20;99.90;;;;;;4926586;29;20457;-91
2023/12/12 08:12:26;;;;;;;254.18;71.10;;;3.90;99.90;;;;;;4938723;29;20058;-92
2023/12/12 08:18:37;;;;;;;163.98;59.65;;;4.10;99.90;;;;;;4962421;28;20559;-91
2023/12/12 08:21:06;;;;;;;209.05;72.15;;;4.10;99.90;;;;;;4941718;28;20047;-92
2023/12/12 08:23:41;;;;;;;339.00;91.00;;;4.20;99.90;;;;;;4942271;28;20062;-91
2023/12/12 08:29:55;;;;;;;375.73;99.85;;;4.40;99.90;;;;;;4936279;29;20393;-91
2023/12/12 08:36:25;;;;;;;355.80;96.78;;;4.60;99.90;;;;;;4897238;29;20431;-91
2023/12/12 08:38:53;;;;;;;463.63;120.68;;;4.60;99.90;;;;;;4865501;29;20040;-91
2023/12/12 08:41:27;;;;;;;483.02;123.30;;;4.70;99.90;;;;;;4865162;29;20526;-90
2023/12/12 08:48:43;;;;;;;403.85;107.07;;;4.60;99.90;;;;;;4896470;29;20066;-92
2023/12/12 08:51:21;;;;;;;;;;;;;;;;;;;;;
2023/12/12 08:53:51;;;;;;;490.42;130.02;;;4.70;99.90;;;;;;4919171;29;20175;-91
2023/12/12 08:56:52;;;;;;;430.77;110.95;;;4.70;99.90;;;;;;4884922;29;20598;-91
2023/12/12 08:59:57;;;;;;;437.02;107.20;;;4.70;99.90;;;;;;4900054;29;20047;-91
2023/12/12 09:02:23;;;;;;;469.10;121.38;;;4.70;99.90;;;;;;4918535;29;20096;-92
2023/12/12 09:04:52;;;;;;;450.10;109.90;;;4.70;99.90;;;;;;4921240;29;20054;-93
2023/12/12 09:07:18;;;;;;;551.90;138.73;;;5.30;99.90;;;;;;4923330;29;20051;-93
2023/12/12 09:10:54;;;;;;;495.90;117.90;;;4.60;99.90;;;;;;4924944;29;20051;-92
2023/12/12 09:13:22;;;;;;;437.67;112.63;;;4.70;99.90;;;;;;4924879;29;20055;-92
2023/12/12 09:15:48;;;;;;;518.30;127.72;;;4.60;99.90;;;;;;4925391;29;20055;-92
2023/12/12 09:18:16;;;;;;;478.87;122.47;;;4.80;99.90;;;;;;4925577;29;20106;-92
2023/12/12 09:24:25;;;;;;;492.95;120.72;;;4.70;99.90;;;;;;4956910;29;20075;-92
2023/12/12 09:27:03;;;;;;;475.40;123.60;;;4.70;99.90;;;;;;4930995;28;20054;-93
2023/12/12 09:29:32;;;;;;;543.20;137.95;;;4.70;99.90;;;;;;4944669;28;20043;-93
2023/12/12 09:32:01;;;;;;;473.48;124.78;;;4.70;99.90;;;;;;4944748;28;20050;-93
2023/12/12 09:34:29;;;;;;;502.05;131.27;;;5.00;99.90;;;;;;4944479;28;20102;-92
2023/12/12 09:36:55;;;;;;;530.25;139.15;;;4.80;99.90;;;;;;4929121;28;20493;-92
2023/12/12 09:39:24;;;;;;;466.07;128.70;;;4.80;99.90;;;;;;4960635;28;20054;-92
2023/12/12 09:41:51;;;;;;;510.15;142.13;;;4.80;99.90;;;;;;4944405;28;20050;-93
2023/12/12 09:44:22;;;;;;;558.53;152.70;;;4.80;99.90;;;;;;4944298;28;20133;-91
2023/12/12 09:46:53;;;;;;;542.05;149.13;;;4.80;99.90;;;;;;4929061;28;20544;-92
2023/12/12 09:49:20;;;;;;;544.92;141.48;;;4.90;99.90;;;;;;4944354;28;20385;-91
2023/12/12 09:51:54;;;;;;;573.38;151.77;;;4.80;99.90;;;;;;4960268;28;20392;-92
2023/12/12 09:54:43;;;;;;;505.15;133.30;;;4.80;99.90;;;;;;4960285;28;20046;-93
2023/12/12 09:57:15;;;;;;;567.30;164.13;;;4.90;99.90;;;;;;4929239;28;20051;-92
2023/12/12 09:59:54;;;;;;;528.20;146.80;;;4.80;99.90;;;;;;4944633;28;20058;-92
2023/12/12 10:03:05;;;;;;;431.10;118.50;;;4.90;99.90;;;;;;4974203;28;20511;-93
2023/12/12 10:05:35;;;;;;;587.03;162.55;;;4.50;99.90;;;;;;4944640;28;20086;-92
2023/12/12 10:08:05;;;;;;;522.35;144.30;;;4.90;99.90;;;;;;4943442;28;20512;-93
2023/12/12 10:10:33;;;;;;;451.55;135.20;;;5.00;99.90;;;;;;4959837;28;20051;-91
2023/12/12 10:13:04;;;;;;;434.77;128.18;;;4.90;99.90;;;;;;4945435;28;20047;-91
2023/12/12 10:15:30;;;;;;;525.53;146.88;;;5.00;99.90;;;;;;4928408;28;20194;-91
2023/12/12 10:18:00;;;;;;;488.27;141.25;;;5.40;99.90;;;;;;4943258;28;20129;-91
2023/12/12 10:20:28;;;;;;;488.70;144.13;;;5.00;99.90;;;;;;4959438;28;20125;-93
2023/12/12 10:23:04;;;;;;;486.90;136.23;;;5.10;99.90;;;;;;4943055;28;20129;-94
2023/12/12 10:25:34;;;;;;;388.97;122.07;;;5.10;99.90;;;;;;4959730;28;20055;-92
2023/12/12 10:28:03;;;;;;;432.58;134.88;;;5.10;99.90;;;;;;4943315;28;20290;-93
2023/12/12 10:30:34;;;;;;;385.75;122.88;;;5.10;99.90;;;;;;4943051;28;20081;-93
2023/12/12 10:33:11;;;;;;;265.80;98.10;;;5.10;99.90;;;;;;4914216;28;20141;-94
2023/12/12 10:35:56;;;;;;;441.15;133.13;;;4.50;99.90;;;;;;4944714;28;20113;-95
2023/12/12 10:38:28;;;;;;;326.95;113.90;;;5.30;99.90;;;;;;4933612;28;20066;-94
2023/12/12 10:40:54;;;;;;;240.77;89.75;;;5.10;99.90;;;;;;4943548;28;20205;-91
2023/12/12 10:43:41;;;;;;;197.43;83.20;;;5.10;99.90;;;;;;4943053;28;20496;-96
2023/12/12 10:46:14;;;;;;;214.43;88.07;;;5.30;99.90;;;;;;4943392;28;20135;-96
2023/12/12 10:48:52;;;;;;;205.13;82.43;;;5.30;99.90;;;;;;4959322;28;20432;-94
2023/12/12 10:51:21;;;;;;;157.63;75.72;;;5.20;99.90;;;;;;4936374;28;20043;-95
2023/12/12 10:53:48;;;;;;;133.57;64.70;;;5.20;99.90;;;;;;4945812;28;20046;-94
2023/12/12 10:56:17;;;;;;;131.25;63.20;;;5.30;99.90;;;;;;4943065;28;20058;-96
2023/12/12 10:58:44;;;;;;;133.30;65.50;;;5.30;99.90;;;;;;4959354;28;20042;-95
2023/12/12 11:01:14;;;;;;;126.32;63.42;;;5.30;99.90;;;;;;4942696;28;20047;-96
2023/12/12 11:03:40;;;;;;;130.00;64.32;;;5.20;99.90;;;;;;4943187;28;20062;-93
2023/12/12 11:06:12;;;;;;;153.15;71.72;;;5.20;99.90;;;;;;4958812;28;20493;-93
2023/12/12 11:08:42;;;;;;;146.77;72.00;;;5.40;99.90;;;;;;4942015;28;20121;-93
2023/12/12 11:11:13;;;;;;;156.32;73.20;;;5.40;99.90;;;;;;4942987;28;20067;-93
2023/12/12 11:13:49;;;;;;;129.93;64.45;;;5.70;99.90;;;;;;4942958;28;20137;-94
2023/12/12 11:16:19;;;;;;;128.27;62.30;;;5.50;99.90;;;;;;4942172;28;20416;-93
2023/12/12 11:18:55;;;;;;;142.45;65.40;;;5.40;99.90;;;;;;4946485;28;20043;-92
2023/12/12 11:21:49;;;;;;;122.75;60.47;;;5.50;99.90;;;;;;4948012;28;20097;-95
2023/12/12 11:28:23;;;;;;;130.90;61.47;;;5.50;99.90;;;;;;4975531;28;20042;-94
2023/12/12 11:35:45;;;;;;;143.50;66.55;;;5.60;99.90;;;;;;4916970;29;20043;-94
2023/12/12 11:42:08;;;;;;;150.80;71.32;;;5.60;99.90;;;;;;4916662;29;20550;-95
2023/12/12 11:52:45;;;;;;;156.38;71.13;;;5.70;99.90;;;;;;4897519;29;20033;-95
2023/12/12 12:03:28;;;;;;;169.95;75.05;;;5.80;99.90;;;;;;4915799;28;20094;-95
2023/12/12 12:06:00;;;;;;;146.30;67.53;;;5.70;99.90;;;;;;4885102;29;20048;-96
2023/12/12 12:16:11;;;;;;;118.35;54.25;;;5.70;99.90;;;;;;4898339;29;20092;-94
2023/12/12 12:22:26;;;;;;;122.60;58.53;;;5.70;99.90;;;;;;4912229;28;20041;-96
2023/12/12 12:25:07;;;;;;;131.15;61.47;;;4.60;99.90;;;;;;4948166;28;20503;-96
2023/12/12 12:27:56;;;;;;;136.65;62.33;;;4.80;99.90;;;;;;4944198;28;20058;-95
2023/12/12 12:30:46;;;;;;;154.90;67.40;;;5.70;99.90;;;;;;4942420;28;20043;-96
2023/12/12 12:36:50;;;;;;;151.40;70.13;;;5.70;99.90;;;;;;4958691;28;20115;-96
2023/12/12 12:39:50;;;;;;;142.90;64.68;;;5.70;99.90;;;;;;4954059;28;20054;-96
2023/12/12 12:43:00;;;;;;;136.73;65.18;;;5.80;99.90;;;;;;4944426;28;20103;-95
2023/12/12 12:49:13;;;;;;;;;;;;;;;;;;;;;
2023/12/12 12:52:20;;;;;;;155.32;66.18;;;5.70;99.90;;;;;;4920278;29;20095;-95
2023/12/12 12:58:37;;;;;;;165.45;70.50;;;5.20;99.90;;;;;;4900615;29;20040;-95
2023/12/12 13:01:04;;;;;;;160.65;66.28;;;5.80;99.90;;;;;;4884902;29;20173;-96
2023/12/12 13:03:31;;;;;;;;;;;5.90;99.90;;;;;;4901039;29;20499;-94
2023/12/12 13:05:58;;;;;;;173.32;67.18;;;5.90;99.90;;;;;;4900496;29;19929;-96
2023/12/12 13:08:24;;;;;;;163.43;69.93;;;5.90;99.90;;;;;;4884592;29;20064;-96
2023/12/12 13:11:10;;;;;;;154.73;67.93;;;6.00;99.90;;;;;;4900604;29;20049;-95
2023/12/12 13:13:39;;;;;;;159.00;67.43;;;5.80;99.90;;;;;;4901002;29;20053;-96
2023/12/12 13:16:19;;;;;;;175.00;73.15;;;5.90;99.90;;;;;;4884723;29;20071;-95
2023/12/12 13:19:05;;;;;;;186.00;76.25;;;5.90;99.90;;;;;;4898031;29;20636;-95
2023/12/12 13:21:36;;;;;;;189.95;79.43;;;6.00;99.90;;;;;;4900052;29;20053;-96
2023/12/12 13:24:08;;;;;;;189.45;79.18;;;5.90;99.90;;;;;;4884945;29;20108;-95
2023/12/12 13:30:24;;;;;;;;;;;6.10;99.90;;;;;;4959108;29;20464;-95
2023/12/12 13:40:31;;;;;;;263.40;88.13;;;5.10;99.90;;;;;;4900173;29;20103;-94
2023/12/12 13:42:59;;;;;;;237.18;86.78;;;6.00;99.90;;;;;;4902546;29;20065;-94
2023/12/12 13:45:28;;;;;;;247.75;86.97;;;6.20;99.90;;;;;;4925537;29;20375;-93
2023/12/12 13:47:59;;;;;;;240.25;86.43;;;6.10;99.90;;;;;;4924729;29;20509;-95
2023/12/12 13:50:30;;;;;;;239.63;88.00;;;6.10;99.90;;;;;;4909895;29;20051;-94
2023/12/12 13:52:57;;;;;;;217.00;81.90;;;6.00;99.90;;;;;;4910030;29;20492;-93
2023/12/12 13:55:31;;;;;;;225.95;84.65;;;5.60;99.90;;;;;;4924529;29;20079;-94
2023/12/12 13:57:57;;;;;;;251.75;91.82;;;5.10;99.90;;;;;;4940153;29;20047;-94
2023/12/12 14:00:28;;;;;;;205.03;78.93;;;6.20;99.90;;;;;;4925171;29;20050;-95
2023/12/12 14:02:59;;;;;;;216.30;81.18;;;6.10;99.90;;;;;;4925338;29;20043;-94
2023/12/12 14:05:38;;;;;;;237.27;87.80;;;6.30;99.90;;;;;;4925903;29;20065;-95
2023/12/12 14:08:07;;;;;;;207.02;82.88;;;7.00;99.90;;;;;;4925105;28;20070;-95
2023/12/12 14:10:35;;;;;;;217.77;78.78;;;6.20;99.90;;;;;;4925473;29;20103;-91
2023/12/12 14:13:02;;;;;;;231.30;85.78;;;6.20;99.90;;;;;;4924884;29;20133;-94
2023/12/12 14:15:31;;;;;;;;;;;6.20;99.90;;;;;;4925400;29;20055;-92
2023/12/12 14:18:02;;;;;;;200.98;78.97;;;6.30;99.90;;;;;;4940846;29;19929;-95
2023/12/12 14:20:31;;;;;;;206.75;78.15;;;6.30;99.90;;;;;;4928379;28;20053;-91
2023/12/12 14:23:04;;;;;;;215.52;79.88;;;6.20;99.90;;;;;;4920447;29;20054;-91
2023/12/12 14:25:32;;;;;;;204.77;79.95;;;6.20;99.90;;;;;;4955131;28;20572;-91
2023/12/12 14:28:00;;;;;;;206.45;77.32;;;6.20;99.90;;;;;;4943348;28;20059;-91